Time;durP1;ratioP1;P1;durP2;ratioP2;P2;SDS_P1;SDS_P2;PMS_P1;PMS_P2;Temp;Humidity;BMP_temperature;BMP_pressure;BME280_temperature;BME280_humidity;BME280_pressure;Samples;Min_cycle;Max_cycle;Signal;HPM_P1;HPM_P2
2022/10/09 00:00:08;;;;;;;37.50;2.30;;;6.90;99.90;;;;;;5078155;28;20792;-63
2022/10/09 00:02:33;;;;;;;6.40;1.30;;;6.90;99.90;;;;;;5085981;28;20681;-63
2022/10/09 00:04:59;;;;;;;4.03;1.63;;;6.90;99.90;;;;;;5072782;28;20450;-64
2022/10/09 00:07:24;;;;;;;4.40;1.80;;;6.80;99.90;;;;;;5087211;28;20253;-64
2022/10/09 00:09:50;;;;;;;2.90;1.47;;;6.80;99.90;;;;;;5085712;28;20180;-63
2022/10/09 00:12:16;;;;;;;5.27;1.57;;;6.90;99.90;;;;;;5086108;28;20214;-63
2022/10/09 00:14:41;;;;;;;5.40;1.37;;;6.80;99.90;;;;;;5092806;28;20570;-63
2022/10/09 00:17:07;;;;;;;2.27;1.27;;;6.80;99.90;;;;;;5093090;28;20275;-64
2022/10/09 00:19:32;;;;;;;1.90;0.90;;;6.70;99.90;;;;;;5092783;28;20173;-63
2022/10/09 00:21:58;;;;;;;3.50;1.77;;;6.70;99.90;;;;;;5092176;28;20212;-63
2022/10/09 00:24:23;;;;;;;3.53;1.90;;;6.60;99.90;;;;;;5092867;28;20177;-63
2022/10/09 00:26:49;;;;;;;7.47;1.40;;;6.60;99.90;;;;;;5092780;28;20686;-63
2022/10/09 00:29:14;;;;;;;6.43;1.60;;;6.60;99.90;;;;;;5085175;28;20185;-64
2022/10/09 00:31:40;;;;;;;3.10;1.63;;;6.50;99.90;;;;;;5085785;28;20711;-64
2022/10/09 00:34:05;;;;;;;1.70;0.90;;;6.50;99.90;;;;;;5084898;28;20206;-63
2022/10/09 00:36:31;;;;;;;4.63;1.87;;;6.50;99.90;;;;;;5086053;28;20211;-64
2022/10/09 00:38:57;;;;;;;3.67;1.63;;;6.40;99.90;;;;;;5086082;28;20516;-64
2022/10/09 00:41:28;;;;;;;3.43;1.33;;;6.40;99.90;;;;;;5072179;28;20224;-63
2022/10/09 00:44:16;;;;;;;7.30;1.80;;;6.40;99.90;;;;;;5078547;28;20322;-63
2022/10/09 00:46:49;;;;;;;13.77;2.20;;;6.40;99.90;;;;;;5031648;28;20500;-63
2022/10/09 00:49:17;;;;;;;2.47;1.67;;;6.30;99.90;;;;;;5091552;28;20418;-63
2022/10/09 00:51:45;;;;;;;4.40;1.90;;;6.20;99.90;;;;;;5065675;28;20458;-63
2022/10/09 00:54:14;;;;;;;8.10;1.67;;;6.20;99.90;;;;;;5091350;28;20445;-63
2022/10/09 00:56:40;;;;;;;4.30;2.20;;;6.20;99.90;;;;;;5090279;28;20410;-63
2022/10/09 00:59:06;;;;;;;3.93;1.60;;;6.20;99.90;;;;;;5079967;28;20419;-63
2022/10/09 01:01:32;;;;;;;7.83;2.40;;;6.20;99.90;;;;;;5071181;28;20500;-63
2022/10/09 01:03:57;;;;;;;3.77;1.93;;;6.20;99.90;;;;;;5084787;28;20418;-63
2022/10/09 01:07:07;;;;;;;4.97;2.13;;;6.20;99.90;;;;;;5092250;28;20172;-63
2022/10/09 01:10:03;;;;;;;5.57;2.30;;;6.10;99.90;;;;;;4996965;28;20202;-63
2022/10/09 01:12:51;;;;;;;2.87;1.30;;;6.20;99.90;;;;;;5065071;28;20463;-63
2022/10/09 01:15:32;;;;;;;6.30;2.07;;;6.20;99.90;;;;;;5077732;28;20431;-64
2022/10/09 01:18:18;;;;;;;4.67;2.37;;;6.10;99.90;;;;;;5079571;28;20888;-64
2022/10/09 01:20:53;;;;;;;4.73;1.80;;;6.10;99.90;;;;;;5092191;28;20426;-64
2022/10/09 01:23:51;;;;;;;5.53;1.97;;;6.10;99.90;;;;;;5091573;28;20471;-63
2022/10/09 01:26:49;;;;;;;6.17;2.80;;;6.10;99.90;;;;;;5081131;28;20411;-63
2022/10/09 01:29:17;;;;;;;3.40;1.60;;;6.10;99.90;;;;;;5078154;28;20421;-63
2022/10/09 01:31:46;;;;;;;15.00;2.13;;;6.00;99.90;;;;;;5091042;28;20446;-63
2022/10/09 01:34:15;;;;;;;2.70;1.70;;;6.10;99.90;;;;;;5077965;28;20418;-63
2022/10/09 01:36:43;;;;;;;4.93;2.00;;;6.10;99.90;;;;;;5090735;28;20425;-63
2022/10/09 01:39:12;;;;;;;6.97;2.33;;;6.00;99.90;;;;;;5080147;28;20853;-63
2022/10/09 01:41:38;;;;;;;3.27;1.90;;;6.00;99.90;;;;;;5091277;28;20450;-63
2022/10/09 01:44:18;;;;;;;3.20;1.97;;;6.00;99.90;;;;;;5090929;28;20431;-63
2022/10/09 01:46:44;;;;;;;8.13;2.60;;;5.90;99.90;;;;;;5091980;28;20267;-63
2022/10/09 01:49:28;;;;;;;6.53;2.37;;;5.90;99.90;;;;;;5091825;28;20434;-63
2022/10/09 01:52:09;;;;;;;6.00;1.90;;;5.90;99.90;;;;;;5091480;28;20418;-63
2022/10/09 01:55:05;;;;;;;10.17;2.37;;;5.90;99.90;;;;;;5091615;28;20417;-63
2022/10/09 01:57:37;;;;;;;3.60;1.67;;;5.90;99.90;;;;;;5091658;28;20519;-64
2022/10/09 02:00:08;;;;;;;4.50;2.27;;;5.90;99.90;;;;;;5082983;28;20753;-64
2022/10/09 02:02:34;;;;;;;6.23;2.13;;;5.90;99.90;;;;;;5071084;28;20488;-63
2022/10/09 02:05:00;;;;;;;8.27;3.20;;;5.90;99.90;;;;;;5071295;28;20443;-63
2022/10/09 02:07:28;;;;;;;9.87;3.90;;;5.90;99.90;;;;;;5085993;28;20771;-63
2022/10/09 02:09:56;;;;;;;8.17;3.90;;;5.90;99.90;;;;;;5091707;28;20426;-63
2022/10/09 02:12:23;;;;;;;12.80;5.07;;;5.90;99.90;;;;;;5091195;28;20422;-63
2022/10/09 02:14:49;;;;;;;6.07;3.63;;;5.90;99.90;;;;;;5090973;28;20429;-63
2022/10/09 02:17:20;;;;;;;8.43;3.40;;;5.90;99.90;;;;;;5091538;28;20419;-63
2022/10/09 02:19:53;;;;;;;10.43;4.87;;;5.90;99.90;;;;;;5091648;28;20188;-63
2022/10/09 02:22:22;;;;;;;10.50;4.47;;;5.90;99.90;;;;;;5093531;28;20474;-63
2022/10/09 02:24:47;;;;;;;11.77;4.50;;;5.80;99.90;;;;;;5089037;28;20422;-63
2022/10/09 02:27:14;;;;;;;10.10;4.20;;;5.90;99.90;;;;;;5077994;28;20785;-63
2022/10/09 02:29:42;;;;;;;16.60;4.90;;;5.90;99.90;;;;;;5094283;28;20183;-64
2022/10/09 02:32:09;;;;;;;18.33;5.53;;;5.90;99.90;;;;;;5094112;28;20904;-63
2022/10/09 02:34:34;;;;;;;13.30;4.83;;;5.90;99.90;;;;;;5093727;28;20434;-63
2022/10/09 02:37:00;;;;;;;11.07;4.90;;;5.90;99.90;;;;;;5078165;28;20423;-63
2022/10/09 02:39:26;;;;;;;13.60;5.43;;;5.90;99.90;;;;;;5084275;28;20215;-64
2022/10/09 02:41:51;;;;;;;10.87;4.47;;;5.90;99.90;;;;;;5094207;28;20292;-63
2022/10/09 02:44:17;;;;;;;10.00;4.53;;;5.80;99.90;;;;;;5093997;28;20188;-64
2022/10/09 02:46:42;;;;;;;13.67;5.07;;;5.80;99.90;;;;;;5094669;28;20184;-64
2022/10/09 02:49:08;;;;;;;10.47;4.20;;;5.80;99.90;;;;;;5089283;28;20215;-63
2022/10/09 02:51:34;;;;;;;9.43;4.73;;;5.70;99.90;;;;;;5094367;28;20203;-64
2022/10/09 02:54:00;;;;;;;23.80;4.20;;;5.80;99.90;;;;;;5094585;28;20441;-63
2022/10/09 02:56:27;;;;;;;7.10;3.80;;;5.70;99.90;;;;;;5077476;28;20422;-63
2022/10/09 02:58:53;;;;;;;10.47;4.20;;;5.70;99.90;;;;;;5093614;28;20549;-63
2022/10/09 03:01:18;;;;;;;13.77;4.23;;;5.70;99.90;;;;;;5094267;28;20454;-64
2022/10/09 03:03:44;;;;;;;16.20;4.60;;;5.70;99.90;;;;;;5094087;28;20498;-63
2022/10/09 03:06:16;;;;;;;14.73;5.37;;;5.70;99.90;;;;;;5094381;28;20584;-63
2022/10/09 03:08:45;;;;;;;16.27;4.77;;;5.70;99.90;;;;;;5094514;28;20204;-63
2022/10/09 03:11:13;;;;;;;10.03;4.53;;;5.60;99.90;;;;;;5094176;28;20419;-63
2022/10/09 03:13:39;;;;;;;7.77;4.50;;;5.60;99.90;;;;;;5092875;28;21054;-64
2022/10/09 03:16:10;;;;;;;11.17;4.20;;;5.60;99.90;;;;;;5088579;28;20776;-63
2022/10/09 03:18:36;;;;;;;10.50;4.83;;;5.70;99.90;;;;;;5086897;28;20426;-63
2022/10/09 03:21:06;;;;;;;7.57;3.53;;;5.70;99.90;;;;;;5087183;28;20434;-63
2022/10/09 03:23:32;;;;;;;10.10;4.33;;;5.60;99.90;;;;;;5093485;28;20509;-63
2022/10/09 03:25:59;;;;;;;5.57;3.00;;;5.60;99.90;;;;;;5093919;28;20497;-64
2022/10/09 03:28:27;;;;;;;10.87;4.80;;;5.60;99.90;;;;;;5093035;28;20183;-63
2022/10/09 03:30:53;;;;;;;18.33;4.20;;;5.70;99.90;;;;;;5094033;28;20422;-63
2022/10/09 03:33:18;;;;;;;8.57;3.93;;;5.70;99.90;;;;;;5078874;28;20464;-64
2022/10/09 03:35:45;;;;;;;9.37;5.17;;;5.70;99.90;;;;;;5078739;28;20172;-64
2022/10/09 03:38:11;;;;;;;8.43;5.07;;;5.70;99.90;;;;;;5092887;28;20788;-63
2022/10/09 03:40:37;;;;;;;9.83;4.77;;;5.70;99.90;;;;;;5092884;28;20418;-63
2022/10/09 03:43:03;;;;;;;5.97;3.93;;;5.70;99.90;;;;;;5091490;28;20446;-63
2022/10/09 03:45:28;;;;;;;13.20;4.87;;;5.60;99.90;;;;;;5085442;28;20205;-63
2022/10/09 03:47:54;;;;;;;15.93;4.93;;;5.60;99.90;;;;;;5086594;28;20180;-63
2022/10/09 03:50:20;;;;;;;11.53;5.40;;;5.50;99.90;;;;;;5086389;28;20270;-63
2022/10/09 03:52:45;;;;;;;22.27;5.97;;;5.40;99.90;;;;;;5086472;28;20253;-63
2022/10/09 03:55:11;;;;;;;10.60;5.73;;;5.30;99.90;;;;;;5093293;28;20648;-63
2022/10/09 03:57:36;;;;;;;11.10;5.53;;;5.20;99.90;;;;;;5093555;28;20268;-63
2022/10/09 04:00:04;;;;;;;20.20;6.10;;;5.30;99.90;;;;;;5092233;28;20673;-63
2022/10/09 04:02:31;;;;;;;9.57;5.23;;;5.10;99.90;;;;;;5079095;28;20200;-63
2022/10/09 04:04:56;;;;;;;11.67;6.00;;;5.20;99.90;;;;;;5092910;28;20780;-63
2022/10/09 04:07:22;;;;;;;14.93;5.33;;;5.10;99.90;;;;;;5079220;28;20426;-63
2022/10/09 04:09:48;;;;;;;9.30;4.47;;;5.10;99.90;;;;;;5072835;28;20173;-63
2022/10/09 04:12:13;;;;;;;8.87;4.30;;;5.10;99.90;;;;;;5086508;28;20263;-63
2022/10/09 04:14:39;;;;;;;17.33;5.33;;;5.10;99.90;;;;;;5092514;28;20177;-63
2022/10/09 04:17:04;;;;;;;19.17;5.00;;;5.10;99.90;;;;;;5079273;28;20207;-63
2022/10/09 04:19:30;;;;;;;9.63;5.03;;;5.20;99.90;;;;;;5092604;28;20218;-63
2022/10/09 04:21:56;;;;;;;10.83;4.50;;;5.20;99.90;;;;;;5092346;28;20208;-63
2022/10/09 04:24:21;;;;;;;6.90;3.50;;;5.20;99.90;;;;;;5092723;28;20508;-63
2022/10/09 04:26:47;;;;;;;13.60;4.20;;;5.30;99.90;;;;;;5092865;28;20172;-63
2022/10/09 04:29:12;;;;;;;8.93;3.83;;;5.20;99.90;;;;;;5092360;28;20665;-63
2022/10/09 04:31:38;;;;;;;7.70;3.87;;;5.20;99.90;;;;;;5092449;28;20217;-63
2022/10/09 04:34:04;;;;;;;9.10;4.40;;;5.20;99.90;;;;;;5084411;28;20267;-63
2022/10/09 04:36:29;;;;;;;9.60;4.33;;;5.20;99.90;;;;;;5072404;28;20184;-63
2022/10/09 04:38:55;;;;;;;9.70;4.47;;;5.10;99.90;;;;;;5072537;28;20189;-63
2022/10/09 04:41:20;;;;;;;11.17;4.70;;;5.10;99.90;;;;;;5072386;28;20208;-63
2022/10/09 04:43:46;;;;;;;10.27;4.27;;;5.10;99.90;;;;;;5090763;28;20231;-63
2022/10/09 04:46:13;;;;;;;10.77;4.80;;;5.10;99.90;;;;;;5092542;28;20176;-63
2022/10/09 04:48:43;;;;;;;16.83;5.07;;;5.00;99.90;;;;;;5089239;28;20626;-63
2022/10/09 04:51:10;;;;;;;9.00;3.77;;;5.10;99.90;;;;;;5090322;28;20425;-64
2022/10/09 04:53:36;;;;;;;19.60;3.27;;;5.00;99.90;;;;;;5092022;28;20413;-64
2022/10/09 04:56:04;;;;;;;6.27;3.17;;;5.00;99.90;;;;;;5076623;28;20518;-64
2022/10/09 04:58:30;;;;;;;6.63;3.57;;;4.90;99.90;;;;;;5091620;28;20475;-64
2022/10/09 05:00:56;;;;;;;15.30;4.00;;;4.80;99.90;;;;;;5092114;28;20418;-64
2022/10/09 05:03:21;;;;;;;5.80;3.27;;;4.80;99.90;;;;;;5084254;28;20696;-64
2022/10/09 05:05:47;;;;;;;4.13;2.50;;;4.70;99.90;;;;;;5073076;28;20411;-64
2022/10/09 05:08:13;;;;;;;8.60;3.77;;;4.80;99.90;;;;;;5084802;28;20208;-64
2022/10/09 05:10:38;;;;;;;10.23;4.00;;;4.70;99.90;;;;;;5072665;28;20181;-64
2022/10/09 05:13:04;;;;;;;11.83;4.23;;;4.70;99.90;;;;;;5091826;28;20188;-64
2022/10/09 05:15:30;;;;;;;9.37;4.20;;;4.60;99.90;;;;;;5091621;28;20192;-64
2022/10/09 05:17:56;;;;;;;5.73;4.10;;;4.60;99.90;;;;;;5092082;28;20527;-64
2022/10/09 05:20:22;;;;;;;10.53;3.60;;;4.60;99.90;;;;;;5091663;28;20429;-64
2022/10/09 05:22:48;;;;;;;11.70;5.00;;;4.70;99.90;;;;;;5084667;28;20211;-64
2022/10/09 05:25:14;;;;;;;6.50;4.03;;;4.70;99.90;;;;;;5058408;28;20181;-64
2022/10/09 05:27:39;;;;;;;6.03;3.17;;;4.60;99.90;;;;;;5092044;28;20176;-64
2022/10/09 05:30:07;;;;;;;6.60;4.40;;;4.70;99.90;;;;;;5091069;28;20459;-64
2022/10/09 05:32:33;;;;;;;9.87;4.67;;;4.70;99.90;;;;;;5091751;28;20192;-64
2022/10/09 05:34:59;;;;;;;10.70;4.10;;;4.60;99.90;;;;;;5091195;28;20422;-64
2022/10/09 05:37:24;;;;;;;8.53;3.87;;;4.60;99.90;;;;;;5092016;28;20208;-64
2022/10/09 05:39:50;;;;;;;5.10;3.53;;;4.60;99.90;;;;;;5078417;28;20207;-64
2022/10/09 05:42:15;;;;;;;5.47;3.03;;;4.60;99.90;;;;;;5077574;28;20216;-64
2022/10/09 05:44:41;;;;;;;9.40;2.90;;;4.70;99.90;;;;;;5091389;28;20181;-64
2022/10/09 05:47:06;;;;;;;4.97;2.93;;;4.60;99.90;;;;;;5091773;28;20659;-64
2022/10/09 05:49:32;;;;;;;3.53;2.30;;;4.60;99.90;;;;;;5081568;28;20180;-64
2022/10/09 05:51:58;;;;;;;7.63;3.13;;;4.60;99.90;;;;;;5088501;28;20278;-64
2022/10/09 05:54:23;;;;;;;6.10;2.67;;;4.60;99.90;;;;;;5090903;28;20253;-64
2022/10/09 05:56:49;;;;;;;3.60;2.17;;;4.60;99.90;;;;;;5093368;28;20937;-64
2022/10/09 05:59:18;;;;;;;4.97;2.13;;;4.60;99.90;;;;;;5094280;28;20184;-64
2022/10/09 06:01:47;;;;;;;5.67;2.90;;;4.60;99.90;;;;;;5094833;28;20196;-64
2022/10/09 06:04:21;;;;;;;3.63;1.90;;;4.60;99.90;;;;;;5095492;28;20468;-64
2022/10/09 06:06:48;;;;;;;3.93;2.23;;;4.60;99.90;;;;;;5095432;28;20903;-64
2022/10/09 06:09:15;;;;;;;5.60;3.27;;;4.50;99.90;;;;;;5093177;28;21141;-64
2022/10/09 06:11:41;;;;;;;6.07;2.77;;;4.50;99.90;;;;;;5084063;28;20414;-64
2022/10/09 06:14:09;;;;;;;4.93;2.87;;;4.50;99.90;;;;;;5087457;28;20434;-64
2022/10/09 06:16:42;;;;;;;10.40;3.67;;;4.50;99.90;;;;;;5083062;28;20426;-64
2022/10/09 06:19:11;;;;;;;9.17;4.17;;;4.60;99.90;;;;;;5090490;28;20441;-64
2022/10/09 06:21:37;;;;;;;6.57;3.00;;;4.60;99.90;;;;;;5092403;28;20501;-64
2022/10/09 06:24:04;;;;;;;5.20;3.13;;;4.60;99.90;;;;;;5091755;28;20442;-64
2022/10/09 06:26:30;;;;;;;4.40;2.67;;;4.70;99.90;;;;;;5090874;28;20195;-64
2022/10/09 06:28:58;;;;;;;7.07;3.70;;;4.70;99.90;;;;;;5092662;28;20938;-64
2022/10/09 06:31:26;;;;;;;4.80;3.50;;;4.70;99.90;;;;;;5082387;28;20445;-65
2022/10/09 06:33:52;;;;;;;10.30;2.90;;;4.80;99.90;;;;;;5090749;28;20809;-64
2022/10/09 06:36:23;;;;;;;10.07;3.70;;;4.80;99.90;;;;;;5093757;28;20426;-64
2022/10/09 06:38:50;;;;;;;6.20;4.20;;;4.90;99.90;;;;;;5091613;28;20422;-64
2022/10/09 06:41:22;;;;;;;5.13;3.23;;;5.00;99.90;;;;;;5085602;28;20521;-64
2022/10/09 06:43:50;;;;;;;15.67;4.67;;;5.10;99.90;;;;;;5092064;28;20450;-64
2022/10/09 06:46:16;;;;;;;11.80;3.87;;;5.10;99.90;;;;;;5092919;28;20415;-64
2022/10/09 06:48:42;;;;;;;6.70;3.83;;;5.30;99.90;;;;;;5090674;28;20454;-64
2022/10/09 06:51:11;;;;;;;9.90;3.50;;;5.30;99.90;;;;;;5089972;28;21323;-64
2022/10/09 06:53:42;;;;;;;10.40;4.20;;;5.40;99.90;;;;;;5091792;28;20176;-64
2022/10/09 06:56:09;;;;;;;7.00;3.40;;;5.60;99.90;;;;;;5078895;28;20419;-64
2022/10/09 06:58:35;;;;;;;7.67;4.07;;;5.80;99.90;;;;;;5091436;28;20418;-64
2022/10/09 07:01:25;;;;;;;9.30;4.47;;;6.10;99.90;;;;;;5090880;28;20832;-64
2022/10/09 07:03:57;;;;;;;6.67;3.83;;;6.30;99.90;;;;;;5083621;28;20430;-64
2022/10/09 07:06:25;;;;;;;7.30;4.37;;;6.50;99.90;;;;;;5086892;28;20503;-64
2022/10/09 07:08:54;;;;;;;9.30;3.90;;;6.80;99.90;;;;;;5077495;28;20417;-64
2022/10/09 07:11:25;;;;;;;11.47;4.37;;;6.90;99.90;;;;;;5083594;28;20453;-64
2022/10/09 07:13:58;;;;;;;7.47;4.40;;;7.10;99.90;;;;;;5091394;28;20426;-64
2022/10/09 07:16:26;;;;;;;9.30;3.50;;;7.30;99.90;;;;;;5092855;28;20514;-64
2022/10/09 07:18:52;;;;;;;6.40;2.90;;;7.50;99.90;;;;;;5078184;28;20427;-64
2022/10/09 07:21:18;;;;;;;9.63;3.33;;;7.70;99.90;;;;;;5084174;28;20439;-64
2022/10/09 07:23:45;;;;;;;9.53;3.27;;;7.90;99.90;;;;;;5074140;28;20924;-64
2022/10/09 07:26:14;;;;;;;10.20;4.13;;;8.10;99.90;;;;;;5087959;28;20459;-64
2022/10/09 07:28:40;;;;;;;15.30;3.60;;;8.30;99.90;;;;;;5092126;28;20430;-64
2022/10/09 07:31:06;;;;;;;5.00;2.67;;;8.50;99.90;;;;;;5093018;28;20468;-64
2022/10/09 07:33:32;;;;;;;6.33;2.93;;;8.80;99.90;;;;;;5091853;28;20828;-64
2022/10/09 07:35:59;;;;;;;4.33;2.50;;;9.20;99.90;;;;;;5092601;28;20476;-64
2022/10/09 07:38:27;;;;;;;5.37;2.70;;;9.70;99.90;;;;;;5092874;28;20180;-64
2022/10/09 07:40:53;;;;;;;9.63;2.70;;;10.10;99.90;;;;;;5093128;28;20918;-64
2022/10/09 07:43:20;;;;;;;4.67;2.30;;;10.40;99.90;;;;;;5089280;28;20478;-64
2022/10/09 07:45:46;;;;;;;6.23;2.43;;;10.90;99.90;;;;;;5082453;28;20509;-64
2022/10/09 07:48:12;;;;;;;4.07;1.83;;;11.50;99.90;;;;;;5090089;28;21010;-65
2022/10/09 07:50:38;;;;;;;14.50;2.50;;;11.70;99.90;;;;;;5082692;28;20180;-69
2022/10/09 07:53:04;;;;;;;4.23;2.17;;;12.20;99.90;;;;;;5092053;28;20423;-64
2022/10/09 07:55:30;;;;;;;3.27;1.90;;;12.10;99.90;;;;;;5080788;28;20419;-64
2022/10/09 07:57:55;;;;;;;9.83;2.50;;;12.50;99.90;;;;;;5074053;28;20196;-65
2022/10/09 08:00:21;;;;;;;3.23;1.60;;;13.00;99.90;;;;;;5082854;28;20185;-64
2022/10/09 08:02:46;;;;;;;4.40;2.10;;;13.20;99.90;;;;;;5071764;28;20212;-65
2022/10/09 08:05:12;;;;;;;4.00;1.90;;;13.70;99.90;;;;;;5081474;28;20215;-65
2022/10/09 08:07:38;;;;;;;7.03;2.83;;;13.80;99.90;;;;;;5091747;28;20188;-65
2022/10/09 08:10:04;;;;;;;5.23;2.53;;;14.30;99.90;;;;;;5091924;28;20558;-65
2022/10/09 08:12:30;;;;;;;4.33;2.30;;;14.10;99.90;;;;;;5089936;28;20893;-64
2022/10/09 08:14:55;;;;;;;4.03;1.93;;;14.80;99.90;;;;;;5071004;28;20946;-64
2022/10/09 08:17:21;;;;;;;5.30;1.97;;;14.90;98.80;;;;;;5071753;28;20431;-64
2022/10/09 08:19:46;;;;;;;3.30;1.87;;;14.80;98.10;;;;;;5079288;28;20223;-64
2022/10/09 08:22:12;;;;;;;5.70;2.20;;;14.90;98.70;;;;;;5089900;28;20295;-63
2022/10/09 08:24:38;;;;;;;7.60;2.60;;;14.80;98.50;;;;;;5075436;28;20185;-63
2022/10/09 08:27:04;;;;;;;3.10;1.70;;;14.60;99.30;;;;;;5087307;28;20188;-64
2022/10/09 08:29:30;;;;;;;7.23;2.37;;;14.10;99.90;;;;;;5090995;28;20410;-65
2022/10/09 08:31:55;;;;;;;3.30;2.40;;;14.30;99.80;;;;;;5091540;28;20426;-64
2022/10/09 08:34:21;;;;;;;4.67;2.00;;;14.10;99.70;;;;;;5083642;28;20188;-65
2022/10/09 08:36:47;;;;;;;6.50;2.30;;;14.00;99.90;;;;;;5088691;28;20638;-64
2022/10/09 08:39:13;;;;;;;7.10;2.40;;;14.30;99.90;;;;;;5091436;28;20196;-65
2022/10/09 08:41:41;;;;;;;6.83;2.33;;;14.00;99.80;;;;;;5091396;28;20208;-64
2022/10/09 08:44:16;;;;;;;5.57;2.17;;;14.70;98.50;;;;;;5088587;28;20250;-64
2022/10/09 08:46:55;;;;;;;3.40;1.93;;;14.40;99.10;;;;;;5084422;28;20577;-65
2022/10/09 08:49:21;;;;;;;4.67;2.20;;;14.80;98.70;;;;;;5081240;28;20423;-70
2022/10/09 08:51:47;;;;;;;4.20;1.83;;;14.40;99.30;;;;;;5086150;28;20422;-70
2022/10/09 08:54:33;;;;;;;4.80;2.30;;;15.10;97.30;;;;;;5089912;28;20538;-70
2022/10/09 08:57:05;;;;;;;5.43;2.10;;;15.10;98.00;;;;;;5079474;28;20949;-69
2022/10/09 08:59:30;;;;;;;2.30;1.50;;;15.10;97.40;;;;;;5076934;28;20948;-70
2022/10/09 09:01:56;;;;;;;3.40;2.00;;;14.20;98.00;;;;;;5079912;28;20545;-70
2022/10/09 09:04:56;;;;;;;5.13;2.80;;;13.80;99.50;;;;;;5072848;28;20650;-69
2022/10/09 09:07:25;;;;;;;2.70;1.63;;;13.40;99.60;;;;;;5060073;28;20639;-70
2022/10/09 09:09:58;;;;;;;3.07;1.47;;;13.40;99.90;;;;;;5091608;28;20422;-70
2022/10/09 09:12:45;;;;;;;3.70;1.67;;;13.10;99.80;;;;;;5090896;28;20779;-70
2022/10/09 09:15:25;;;;;;;5.00;1.50;;;13.10;99.90;;;;;;5090860;28;20426;-70
2022/10/09 09:18:09;;;;;;;3.03;1.70;;;13.30;99.90;;;;;;5091456;28;20633;-69
2022/10/09 09:20:53;;;;;;;4.20;2.00;;;13.30;99.90;;;;;;5086184;28;20508;-68
2022/10/09 09:23:34;;;;;;;3.23;1.40;;;13.40;99.90;;;;;;5090861;28;20461;-68
2022/10/09 09:26:01;;;;;;;3.00;1.57;;;13.30;99.90;;;;;;5081996;28;20452;-69
2022/10/09 09:28:32;;;;;;;3.67;1.53;;;13.10;99.30;;;;;;5091160;28;20502;-68
2022/10/09 09:31:05;;;;;;;3.00;1.40;;;13.20;99.90;;;;;;5082156;28;20762;-68
2022/10/09 09:33:41;;;;;;;13.47;2.10;;;13.20;99.90;;;;;;5094395;28;20406;-68
2022/10/09 09:36:30;;;;;;;3.03;1.40;;;13.30;99.90;;;;;;5094964;28;20429;-64
2022/10/09 09:38:55;;;;;;;2.00;1.00;;;13.30;99.70;;;;;;5087393;28;20485;-64
2022/10/09 09:41:21;;;;;;;2.93;1.87;;;13.30;99.40;;;;;;5092989;28;20449;-64
2022/10/09 09:43:47;;;;;;;7.47;1.50;;;13.50;99.40;;;;;;5094844;28;20517;-64
2022/10/09 09:46:17;;;;;;;6.03;1.80;;;13.50;99.80;;;;;;5093810;28;20218;-64
2022/10/09 09:48:47;;;;;;;3.27;1.37;;;13.40;99.90;;;;;;5093478;28;20172;-64
2022/10/09 09:51:24;;;;;;;4.07;1.70;;;13.60;99.70;;;;;;5093624;28;20472;-64
2022/10/09 09:54:15;;;;;;;2.53;1.10;;;13.60;99.90;;;;;;5091708;28;20827;-64
2022/10/09 09:56:43;;;;;;;7.00;2.10;;;13.60;98.40;;;;;;5079663;28;20410;-64
2022/10/09 09:59:26;;;;;;;2.27;1.27;;;13.80;98.60;;;;;;5091587;28;20410;-64
2022/10/09 10:02:10;;;;;;;4.50;1.40;;;13.90;98.40;;;;;;5092587;28;20454;-64
2022/10/09 10:04:36;;;;;;;3.23;1.30;;;14.00;98.20;;;;;;5094640;28;20430;-64
2022/10/09 10:07:02;;;;;;;3.10;1.57;;;14.00;98.80;;;;;;5093868;28;20457;-64
2022/10/09 10:09:28;;;;;;;4.20;1.40;;;14.20;98.00;;;;;;5094526;28;20197;-64
2022/10/09 10:11:55;;;;;;;2.70;1.37;;;14.30;97.50;;;;;;5090801;28;20450;-64
2022/10/09 10:14:21;;;;;;;5.07;1.63;;;14.50;97.10;;;;;;5091738;28;20796;-64
2022/10/09 10:16:49;;;;;;;4.60;2.00;;;14.60;97.10;;;;;;5092666;28;20437;-64
2022/10/09 10:19:23;;;;;;;3.40;1.57;;;14.50;97.20;;;;;;5094391;28;20688;-64
2022/10/09 10:21:54;;;;;;;2.13;1.33;;;14.60;96.70;;;;;;5091960;28;20462;-64
2022/10/09 10:24:26;;;;;;;3.37;1.13;;;14.60;97.30;;;;;;5093928;28;20446;-64
2022/10/09 10:27:04;;;;;;;2.27;1.13;;;14.90;96.10;;;;;;5094793;28;20420;-64
2022/10/09 10:29:32;;;;;;;6.10;1.40;;;14.80;97.00;;;;;;5094394;28;20414;-64
2022/10/09 10:32:22;;;;;;;1.97;0.90;;;15.00;97.00;;;;;;5094549;28;20426;-64
2022/10/09 10:34:51;;;;;;;5.30;1.40;;;15.30;94.90;;;;;;5094119;28;20764;-64
2022/10/09 10:37:50;;;;;;;3.47;1.20;;;15.20;94.60;;;;;;5094292;28;20417;-65
2022/10/09 10:40:25;;;;;;;2.57;1.10;;;15.30;94.40;;;;;;5054946;28;21107;-65
2022/10/09 10:43:02;;;;;;;3.50;1.40;;;15.20;94.00;;;;;;5091791;28;20546;-65
2022/10/09 10:45:42;;;;;;;2.70;1.10;;;15.20;94.10;;;;;;5093206;28;20414;-65
2022/10/09 10:48:21;;;;;;;7.23;1.30;;;15.40;93.60;;;;;;5091010;28;20429;-65
2022/10/09 10:51:01;;;;;;;2.20;0.97;;;15.40;93.70;;;;;;5094437;28;20433;-65
2022/10/09 10:53:36;;;;;;;3.70;1.17;;;15.50;93.80;;;;;;5093923;28;20440;-65
2022/10/09 10:56:14;;;;;;;3.80;1.00;;;15.70;93.70;;;;;;5090387;28;20418;-65
2022/10/09 10:58:59;;;;;;;1.60;0.80;;;15.80;92.10;;;;;;5088049;28;20434;-65
2022/10/09 11:01:34;;;;;;;2.80;0.90;;;15.90;92.80;;;;;;5093968;28;20437;-64
2022/10/09 11:04:11;;;;;;;2.23;0.77;;;15.90;90.80;;;;;;5080536;28;20442;-65
2022/10/09 11:06:50;;;;;;;2.40;0.80;;;15.80;91.70;;;;;;5092703;28;20421;-65
2022/10/09 11:09:46;;;;;;;1.90;0.97;;;15.80;91.30;;;;;;5074005;28;20916;-65
2022/10/09 11:12:18;;;;;;;2.07;0.83;;;15.70;91.30;;;;;;5087469;28;20446;-65
2022/10/09 11:15:01;;;;;;;4.97;1.13;;;15.70;91.10;;;;;;5086303;28;20426;-64
2022/10/09 11:17:35;;;;;;;1.77;0.90;;;15.80;91.60;;;;;;5086046;28;20445;-65
2022/10/09 11:20:25;;;;;;;4.07;1.00;;;15.90;92.00;;;;;;5093274;28;20446;-65
2022/10/09 11:23:01;;;;;;;2.47;0.93;;;16.10;90.60;;;;;;5092727;28;20466;-65
2022/10/09 11:25:29;;;;;;;1.60;0.77;;;16.20;90.80;;;;;;5081917;28;20423;-65
2022/10/09 11:28:01;;;;;;;1.30;0.60;;;16.20;90.70;;;;;;5079340;28;20410;-65
2022/10/09 11:30:31;;;;;;;8.10;1.23;;;16.40;90.20;;;;;;5089919;28;20776;-66
2022/10/09 11:33:22;;;;;;;4.43;1.00;;;16.30;90.10;;;;;;5092525;28;20406;-65
2022/10/09 11:36:03;;;;;;;3.47;1.10;;;16.50;89.30;;;;;;5086806;28;20458;-66
2022/10/09 11:38:35;;;;;;;4.30;1.20;;;16.30;90.00;;;;;;5080018;28;20422;-65
2022/10/09 11:41:02;;;;;;;4.30;1.40;;;16.50;90.00;;;;;;5076125;28;20489;-65
2022/10/09 11:43:40;;;;;;;5.07;0.93;;;16.40;90.60;;;;;;5074331;28;20459;-66
2022/10/09 11:46:34;;;;;;;2.13;0.90;;;16.50;90.90;;;;;;5092304;28;20415;-66
2022/10/09 11:48:59;;;;;;;3.20;0.90;;;16.50;90.20;;;;;;5092659;28;20422;-66
2022/10/09 11:51:43;;;;;;;5.40;1.30;;;16.30;89.40;;;;;;5092493;28;20410;-66
2022/10/09 11:54:15;;;;;;;3.10;0.90;;;16.20;89.20;;;;;;5076017;28;20179;-66
2022/10/09 11:57:02;;;;;;;2.87;0.90;;;16.30;90.30;;;;;;5090366;28;20426;-66
2022/10/09 11:59:41;;;;;;;1.53;0.63;;;16.50;90.20;;;;;;5078188;28;20430;-66
2022/10/09 12:02:25;;;;;;;2.10;0.80;;;16.30;90.00;;;;;;5084108;28;20786;-65
2022/10/09 12:04:51;;;;;;;1.70;0.90;;;16.50;88.60;;;;;;5085930;28;20946;-65
2022/10/09 12:07:34;;;;;;;3.00;0.87;;;16.50;88.30;;;;;;5083966;28;20426;-66
2022/10/09 12:10:02;;;;;;;3.10;1.10;;;16.60;88.30;;;;;;5077754;28;20425;-66
2022/10/09 12:12:29;;;;;;;2.63;1.47;;;16.60;90.00;;;;;;5060846;28;20815;-66
2022/10/09 12:14:54;;;;;;;2.53;0.93;;;16.70;89.70;;;;;;5091258;28;20431;-66
2022/10/09 12:17:23;;;;;;;2.00;0.73;;;16.80;88.20;;;;;;5092072;28;20441;-66
2022/10/09 12:20:19;;;;;;;2.90;1.30;;;16.70;87.00;;;;;;5091408;28;20676;-66
2022/10/09 12:22:48;;;;;;;3.40;1.33;;;16.50;88.00;;;;;;5084453;28;20841;-65
2022/10/09 12:25:31;;;;;;;1.70;0.73;;;16.30;87.70;;;;;;5089448;28;20908;-65
2022/10/09 12:27:59;;;;;;;2.33;0.60;;;16.10;88.70;;;;;;5087089;28;20930;-65
2022/10/09 12:30:32;;;;;;;1.70;0.67;;;16.20;89.20;;;;;;5077130;28;20434;-65
2022/10/09 12:33:06;;;;;;;2.53;1.07;;;16.30;90.00;;;;;;5080895;28;20427;-64
2022/10/09 12:35:37;;;;;;;1.40;0.70;;;16.40;89.60;;;;;;5085097;28;20881;-65
2022/10/09 12:38:23;;;;;;;2.57;0.73;;;16.40;89.90;;;;;;5080505;28;20947;-65
2022/10/09 12:40:50;;;;;;;1.40;0.57;;;16.50;89.00;;;;;;5091061;28;20812;-65
2022/10/09 12:43:19;;;;;;;1.40;0.77;;;16.60;89.30;;;;;;5091289;28;20842;-65
2022/10/09 12:45:46;;;;;;;5.00;1.60;;;17.00;88.10;;;;;;5089378;28;20422;-65
2022/10/09 12:48:17;;;;;;;3.10;1.17;;;16.80;88.20;;;;;;5071880;28;20511;-64
2022/10/09 12:50:42;;;;;;;2.73;0.90;;;16.90;87.20;;;;;;5088267;28;20434;-64
2022/10/09 12:53:17;;;;;;;4.70;0.70;;;16.90;87.00;;;;;;5091442;28;20496;-65
2022/10/09 12:55:45;;;;;;;1.70;1.00;;;16.90;87.20;;;;;;5087438;28;20188;-64
2022/10/09 12:58:29;;;;;;;4.63;1.30;;;17.00;87.20;;;;;;5082313;28;20488;-65
2022/10/09 13:01:00;;;;;;;2.60;0.90;;;16.70;87.20;;;;;;5077869;28;20414;-69
2022/10/09 13:03:34;;;;;;;2.20;1.23;;;16.70;88.10;;;;;;5091124;28;20506;-70
2022/10/09 13:06:05;;;;;;;1.80;0.90;;;16.60;89.00;;;;;;5081780;28;20431;-70